sensor_id;sensor_type;location;lat;lon;timestamp;pressure;altitude;pressure_sealevel;temperature;humidity
6343;BME280;3204;42.698;23.298;2023-04-26T00:00:21;93970.00;;;12.76;84.51
6343;BME280;3204;42.698;23.298;2023-04-26T00:02:46;93971.41;;;12.86;85.63
6343;BME280;3204;42.698;23.298;2023-04-26T00:05:13;93957.34;;;12.56;86.44
6343;BME280;3204;42.698;23.298;2023-04-26T00:07:39;93957.97;;;12.50;87.27
6343;BME280;3204;42.698;23.298;2023-04-26T00:10:06;93956.34;;;12.49;86.39
6343;BME280;3204;42.698;23.298;2023-04-26T00:12:32;93951.72;;;12.37;86.18
6343;BME280;3204;42.698;23.298;2023-04-26T00:14:57;93951.31;;;12.35;86.80
6343;BME280;3204;42.698;23.298;2023-04-26T00:17:23;93946.44;;;12.41;86.61
6343;BME280;3204;42.698;23.298;2023-04-26T00:19:49;93947.09;;;12.38;86.93
6343;BME280;3204;42.698;23.298;2023-04-26T00:22:15;93934.66;;;12.37;87.28
6343;BME280;3204;42.698;23.298;2023-04-26T00:24:41;93941.75;;;12.41;86.28
6343;BME280;3204;42.698;23.298;2023-04-26T00:27:07;93938.94;;;12.38;86.22
6343;BME280;3204;42.698;23.298;2023-04-26T00:29:35;93943.03;;;12.32;86.53
6343;BME280;3204;42.698;23.298;2023-04-26T00:32:01;93932.47;;;12.42;85.88
6343;BME280;3204;42.698;23.298;2023-04-26T00:34:36;93936.19;;;12.50;85.82
6343;BME280;3204;42.698;23.298;2023-04-26T00:37:02;93930.59;;;12.58;86.83
6343;BME280;3204;42.698;23.298;2023-04-26T00:39:29;93916.44;;;12.53;86.27
6343;BME280;3204;42.698;23.298;2023-04-26T00:41:54;93930.84;;;12.53;86.45
6343;BME280;3204;42.698;23.298;2023-04-26T00:44:20;93928.50;;;12.40;86.04
6343;BME280;3204;42.698;23.298;2023-04-26T00:46:46;93934.41;;;12.30;86.46
6343;BME280;3204;42.698;23.298;2023-04-26T00:49:15;93927.31;;;12.25;86.45
6343;BME280;3204;42.698;23.298;2023-04-26T00:51:42;93931.28;;;12.28;85.82
6343;BME280;3204;42.698;23.298;2023-04-26T00:54:08;93937.88;;;12.15;85.49
6343;BME280;3204;42.698;23.298;2023-04-26T00:56:35;93929.34;;;12.28;85.25
6343;BME280;3204;42.698;23.298;2023-04-26T00:59:01;93931.47;;;12.35;85.14
6343;BME280;3204;42.698;23.298;2023-04-26T01:01:27;93931.88;;;12.49;84.75
6343;BME280;3204;42.698;23.298;2023-04-26T01:03:53;93925.31;;;12.50;84.23
6343;BME280;3204;42.698;23.298;2023-04-26T01:06:19;93941.66;;;12.38;84.28
6343;BME280;3204;42.698;23.298;2023-04-26T01:08:45;93936.38;;;12.29;84.43
6343;BME280;3204;42.698;23.298;2023-04-26T01:11:11;93945.06;;;12.35;84.69
6343;BME280;3204;42.698;23.298;2023-04-26T01:13:37;93943.38;;;12.30;83.87
6343;BME280;3204;42.698;23.298;2023-04-26T01:16:03;93944.38;;;12.38;84.62
6343;BME280;3204;42.698;23.298;2023-04-26T01:18:31;93945.19;;;12.38;83.77
6343;BME280;3204;42.698;23.298;2023-04-26T01:20:56;93939.16;;;12.45;84.29
6343;BME280;3204;42.698;23.298;2023-04-26T01:23:23;93929.31;;;12.40;84.52
6343;BME280;3204;42.698;23.298;2023-04-26T01:25:48;93921.03;;;12.09;85.50
6343;BME280;3204;42.698;23.298;2023-04-26T01:28:14;93917.78;;;11.80;86.29
6343;BME280;3204;42.698;23.298;2023-04-26T01:30:39;93914.72;;;11.69;86.52
6343;BME280;3204;42.698;23.298;2023-04-26T01:33:05;93918.44;;;11.77;87.14
6343;BME280;3204;42.698;23.298;2023-04-26T01:35:30;93930.88;;;11.78;86.16
6343;BME280;3204;42.698;23.298;2023-04-26T01:37:56;93936.09;;;11.83;86.56
6343;BME280;3204;42.698;23.298;2023-04-26T01:40:21;93925.66;;;11.97;86.76
6343;BME280;3204;42.698;23.298;2023-04-26T01:42:47;93931.31;;;12.04;86.12
6343;BME280;3204;42.698;23.298;2023-04-26T01:45:12;93933.56;;;12.02;85.48
6343;BME280;3204;42.698;23.298;2023-04-26T01:47:38;93941.63;;;12.10;85.23
6343;BME280;3204;42.698;23.298;2023-04-26T01:50:03;93936.72;;;12.16;85.28
6343;BME280;3204;42.698;23.298;2023-04-26T01:52:29;93936.72;;;12.28;85.70
6343;BME280;3204;42.698;23.298;2023-04-26T01:54:54;93943.16;;;12.35;85.05
6343;BME280;3204;42.698;23.298;2023-04-26T01:57:20;93935.19;;;12.42;84.19
6343;BME280;3204;42.698;23.298;2023-04-26T01:59:45;93937.13;;;12.42;83.34
6343;BME280;3204;42.698;23.298;2023-04-26T02:02:11;93930.84;;;12.26;82.48
6343;BME280;3204;42.698;23.298;2023-04-26T02:04:36;93917.81;;;12.19;83.64
6343;BME280;3204;42.698;23.298;2023-04-26T02:07:02;93917.91;;;12.23;84.13
6343;BME280;3204;42.698;23.298;2023-04-26T02:09:27;93913.22;;;11.96;84.53
6343;BME280;3204;42.698;23.298;2023-04-26T02:11:53;93918.22;;;11.70;85.93
6343;BME280;3204;42.698;23.298;2023-04-26T02:14:18;93925.25;;;11.71;86.35
6343;BME280;3204;42.698;23.298;2023-04-26T02:16:44;93904.66;;;11.70;86.50
6343;BME280;3204;42.698;23.298;2023-04-26T02:19:10;93902.63;;;11.79;86.47
6343;BME280;3204;42.698;23.298;2023-04-26T02:21:52;93902.47;;;11.75;85.82
6343;BME280;3204;42.698;23.298;2023-04-26T02:24:18;93902.00;;;11.85;85.87
6343;BME280;3204;42.698;23.298;2023-04-26T02:26:44;93905.09;;;11.72;86.15
6343;BME280;3204;42.698;23.298;2023-04-26T02:29:09;93905.56;;;11.74;86.35
6343;BME280;3204;42.698;23.298;2023-04-26T02:31:35;93905.09;;;11.84;86.58
6343;BME280;3204;42.698;23.298;2023-04-26T02:34:00;93905.53;;;11.98;86.38
6343;BME280;3204;42.698;23.298;2023-04-26T02:36:26;93919.75;;;12.07;85.61
6343;BME280;3204;42.698;23.298;2023-04-26T02:38:51;93916.41;;;11.98;85.76
6343;BME280;3204;42.698;23.298;2023-04-26T02:41:17;93914.69;;;11.93;85.75
6343;BME280;3204;42.698;23.298;2023-04-26T02:43:42;93918.31;;;11.85;85.86
6343;BME280;3204;42.698;23.298;2023-04-26T02:46:08;93919.13;;;11.98;85.89
6343;BME280;3204;42.698;23.298;2023-04-26T02:48:33;93926.34;;;11.82;86.14
6343;BME280;3204;42.698;23.298;2023-04-26T02:50:59;93912.19;;;11.88;83.30
6343;BME280;3204;42.698;23.298;2023-04-26T02:53:24;93899.19;;;11.58;83.92
6343;BME280;3204;42.698;23.298;2023-04-26T02:55:50;93897.03;;;11.27;85.26
6343;BME280;3204;42.698;23.298;2023-04-26T02:58:15;93895.09;;;11.16;85.91
6343;BME280;3204;42.698;23.298;2023-04-26T03:00:45;93888.91;;;11.15;85.92
6343;BME280;3204;42.698;23.298;2023-04-26T03:03:11;93889.91;;;10.99;87.01
6343;BME280;3204;42.698;23.298;2023-04-26T03:05:37;93896.09;;;10.99;87.12
6343;BME280;3204;42.698;23.298;2023-04-26T03:08:02;93884.56;;;11.14;87.84
6343;BME280;3204;42.698;23.298;2023-04-26T03:10:28;93894.09;;;11.32;86.72
6343;BME280;3204;42.698;23.298;2023-04-26T03:12:53;93903.94;;;11.25;86.90
6343;BME280;3204;42.698;23.298;2023-04-26T03:15:19;93901.00;;;11.30;87.39
6343;BME280;3204;42.698;23.298;2023-04-26T03:17:44;93897.72;;;11.24;86.74
6343;BME280;3204;42.698;23.298;2023-04-26T03:20:10;93893.06;;;11.13;86.61
6343;BME280;3204;42.698;23.298;2023-04-26T03:22:36;93892.94;;;10.97;87.45
6343;BME280;3204;42.698;23.298;2023-04-26T03:25:01;93885.94;;;10.96;87.66
6343;BME280;3204;42.698;23.298;2023-04-26T03:27:29;93884.69;;;10.94;87.48
6343;BME280;3204;42.698;23.298;2023-04-26T03:29:55;93895.53;;;11.06;88.33
6343;BME280;3204;42.698;23.298;2023-04-26T03:32:20;93898.50;;;11.25;88.07
6343;BME280;3204;42.698;23.298;2023-04-26T03:34:45;93890.69;;;11.47;87.61
6343;BME280;3204;42.698;23.298;2023-04-26T03:37:13;93896.72;;;11.77;88.50
6343;BME280;3204;42.698;23.298;2023-04-26T03:39:38;93891.94;;;11.98;88.04
6343;BME280;3204;42.698;23.298;2023-04-26T03:42:04;93905.34;;;12.18;87.52
6343;BME280;3204;42.698;23.298;2023-04-26T03:44:29;93903.03;;;12.32;87.00
6343;BME280;3204;42.698;23.298;2023-04-26T03:46:55;93917.44;;;12.33;85.07
6343;BME280;3204;42.698;23.298;2023-04-26T03:49:20;93918.44;;;12.40;85.96
6343;BME280;3204;42.698;23.298;2023-04-26T03:51:46;93927.16;;;12.46;84.98
6343;BME280;3204;42.698;23.298;2023-04-26T03:54:11;93917.00;;;12.31;83.34
6343;BME280;3204;42.698;23.298;2023-04-26T03:56:37;93929.34;;;12.28;83.21
6343;BME280;3204;42.698;23.298;2023-04-26T03:59:04;93930.34;;;12.36;84.57
6343;BME280;3204;42.698;23.298;2023-04-26T04:01:29;93923.78;;;12.37;83.13
6343;BME280;3204;42.698;23.298;2023-04-26T04:03:56;93921.22;;;12.56;85.11
6343;BME280;3204;42.698;23.298;2023-04-26T04:06:22;93928.22;;;12.57;83.45
6343;BME280;3204;42.698;23.298;2023-04-26T04:08:47;93928.13;;;12.53;82.56
6343;BME280;3204;42.698;23.298;2023-04-26T04:11:13;93927.34;;;12.53;82.69
6343;BME280;3204;42.698;23.298;2023-04-26T04:13:38;93930.75;;;12.50;82.19
6343;BME280;3204;42.698;23.298;2023-04-26T04:16:04;93934.34;;;12.54;82.54
6343;BME280;3204;42.698;23.298;2023-04-26T04:18:31;93939.00;;;12.53;82.00
6343;BME280;3204;42.698;23.298;2023-04-26T04:20:56;93935.75;;;12.48;83.01
6343;BME280;3204;42.698;23.298;2023-04-26T04:23:22;93937.84;;;12.27;83.10
6343;BME280;3204;42.698;23.298;2023-04-26T04:25:47;93939.00;;;12.14;83.44
6343;BME280;3204;42.698;23.298;2023-04-26T04:28:13;93943.53;;;12.10;83.71
6343;BME280;3204;42.698;23.298;2023-04-26T04:30:40;93938.28;;;12.29;83.82
6343;BME280;3204;42.698;23.298;2023-04-26T04:33:05;93937.06;;;12.54;83.68
6343;BME280;3204;42.698;23.298;2023-04-26T04:35:31;93941.44;;;12.70;82.83
6343;BME280;3204;42.698;23.298;2023-04-26T04:37:58;93946.78;;;12.67;82.33
6343;BME280;3204;42.698;23.298;2023-04-26T04:40:24;93945.44;;;12.61;81.79
6343;BME280;3204;42.698;23.298;2023-04-26T04:42:50;93948.19;;;12.49;82.20
6343;BME280;3204;42.698;23.298;2023-04-26T04:45:15;93947.19;;;12.53;82.31
6343;BME280;3204;42.698;23.298;2023-04-26T04:47:42;93955.53;;;12.60;82.15
6343;BME280;3204;42.698;23.298;2023-04-26T04:50:08;93953.34;;;12.66;80.94
6343;BME280;3204;42.698;23.298;2023-04-26T04:52:34;93953.75;;;12.52;81.28
6343;BME280;3204;42.698;23.298;2023-04-26T04:55:00;93949.00;;;12.49;82.65
6343;BME280;3204;42.698;23.298;2023-04-26T04:57:26;93950.31;;;12.55;81.76
6343;BME280;3204;42.698;23.298;2023-04-26T04:59:51;93956.19;;;12.69;81.78
6343;BME280;3204;42.698;23.298;2023-04-26T05:02:17;93949.34;;;12.75;81.61
6343;BME280;3204;42.698;23.298;2023-04-26T05:04:43;93956.56;;;12.83;81.23
6343;BME280;3204;42.698;23.298;2023-04-26T05:07:08;93945.78;;;12.87;80.70
6343;BME280;3204;42.698;23.298;2023-04-26T05:09:34;93948.72;;;12.94;80.82
6343;BME280;3204;42.698;23.298;2023-04-26T05:11:59;93949.31;;;13.15;81.52
6343;BME280;3204;42.698;23.298;2023-04-26T05:14:25;93948.38;;;13.38;81.40
6343;BME280;3204;42.698;23.298;2023-04-26T05:16:51;93952.41;;;13.44;80.19
6343;BME280;3204;42.698;23.298;2023-04-26T05:19:16;93953.91;;;13.42;80.07
6343;BME280;3204;42.698;23.298;2023-04-26T05:21:42;93950.84;;;13.43;79.30
6343;BME280;3204;42.698;23.298;2023-04-26T05:24:07;93950.91;;;13.31;78.91
6343;BME280;3204;42.698;23.298;2023-04-26T05:26:34;93947.66;;;13.41;78.64
6343;BME280;3204;42.698;23.298;2023-04-26T05:28:59;93953.63;;;13.31;78.73
6343;BME280;3204;42.698;23.298;2023-04-26T05:31:25;93968.88;;;13.05;79.82
6343;BME280;3204;42.698;23.298;2023-04-26T05:33:51;93967.66;;;13.18;79.38
6343;BME280;3204;42.698;23.298;2023-04-26T05:36:17;93966.94;;;13.05;78.62
6343;BME280;3204;42.698;23.298;2023-04-26T05:38:42;93971.41;;;12.98;79.31
6343;BME280;3204;42.698;23.298;2023-04-26T05:41:08;93967.06;;;12.97;80.23
6343;BME280;3204;42.698;23.298;2023-04-26T05:43:33;93972.03;;;13.07;79.78
6343;BME280;3204;42.698;23.298;2023-04-26T05:45:58;93967.28;;;13.04;80.36
6343;BME280;3204;42.698;23.298;2023-04-26T05:48:26;93971.88;;;13.15;80.08
6343;BME280;3204;42.698;23.298;2023-04-26T05:50:51;93981.53;;;13.13;79.73
6343;BME280;3204;42.698;23.298;2023-04-26T05:53:17;93974.44;;;13.24;79.61
6343;BME280;3204;42.698;23.298;2023-04-26T05:55:43;93983.06;;;13.26;79.35
6343;BME280;3204;42.698;23.298;2023-04-26T05:58:09;93975.44;;;13.47;79.74
6343;BME280;3204;42.698;23.298;2023-04-26T06:00:36;93976.50;;;13.42;79.48
6343;BME280;3204;42.698;23.298;2023-04-26T06:03:01;93983.44;;;13.40;79.78
6343;BME280;3204;42.698;23.298;2023-04-26T06:05:27;93982.81;;;13.31;79.41
6343;BME280;3204;42.698;23.298;2023-04-26T06:07:52;93978.34;;;13.11;79.67
6343;BME280;3204;42.698;23.298;2023-04-26T06:10:18;93984.06;;;13.06;80.63
6343;BME280;3204;42.698;23.298;2023-04-26T06:12:43;93977.06;;;13.20;80.68
6343;BME280;3204;42.698;23.298;2023-04-26T06:15:10;93978.56;;;13.18;81.17
6343;BME280;3204;42.698;23.298;2023-04-26T06:17:35;93983.66;;;13.35;80.96
6343;BME280;3204;42.698;23.298;2023-04-26T06:20:01;93979.22;;;13.42;80.27
6343;BME280;3204;42.698;23.298;2023-04-26T06:22:26;93979.81;;;13.51;79.94
6343;BME280;3204;42.698;23.298;2023-04-26T06:24:52;93976.59;;;13.46;79.71
6343;BME280;3204;42.698;23.298;2023-04-26T06:27:17;93972.63;;;13.43;81.08
6343;BME280;3204;42.698;23.298;2023-04-26T06:29:43;93984.88;;;13.65;80.22
6343;BME280;3204;42.698;23.298;2023-04-26T06:32:09;93981.84;;;14.01;78.73
6343;BME280;3204;42.698;23.298;2023-04-26T06:34:34;93980.94;;;14.12;76.93
6343;BME280;3204;42.698;23.298;2023-04-26T06:37:01;93971.66;;;13.98;76.61
6343;BME280;3204;42.698;23.298;2023-04-26T06:39:26;93988.63;;;13.60;73.60
6343;BME280;3204;42.698;23.298;2023-04-26T06:41:52;93988.09;;;13.86;74.91
6343;BME280;3204;42.698;23.298;2023-04-26T06:44:17;93985.91;;;14.07;72.40
6343;BME280;3204;42.698;23.298;2023-04-26T06:46:42;93996.63;;;14.31;70.88
6343;BME280;3204;42.698;23.298;2023-04-26T06:49:08;94003.66;;;14.32;69.32
6343;BME280;3204;42.698;23.298;2023-04-26T06:51:35;94004.34;;;14.29;70.19
6343;BME280;3204;42.698;23.298;2023-04-26T06:54:01;94002.84;;;14.31;69.67
6343;BME280;3204;42.698;23.298;2023-04-26T06:56:26;94006.94;;;14.22;69.60
6343;BME280;3204;42.698;23.298;2023-04-26T07:01:23;94002.59;;;14.71;68.81
6343;BME280;3204;42.698;23.298;2023-04-26T07:03:49;94004.91;;;14.88;69.67
6343;BME280;3204;42.698;23.298;2023-04-26T07:06:14;94009.22;;;15.27;69.59
6343;BME280;3204;42.698;23.298;2023-04-26T07:08:41;94008.66;;;15.37;68.14
6343;BME280;3204;42.698;23.298;2023-04-26T07:11:09;94014.13;;;15.37;67.31
6343;BME280;3204;42.698;23.298;2023-04-26T07:13:35;94009.50;;;15.60;66.88
6343;BME280;3204;42.698;23.298;2023-04-26T07:16:00;94009.72;;;14.94;68.32
6343;BME280;3204;42.698;23.298;2023-04-26T07:18:26;94006.44;;;15.23;68.71
6343;BME280;3204;42.698;23.298;2023-04-26T07:20:51;94007.47;;;15.57;67.53
6343;BME280;3204;42.698;23.298;2023-04-26T07:23:17;94023.28;;;15.67;65.17
6343;BME280;3204;42.698;23.298;2023-04-26T07:25:42;94018.28;;;15.50;65.06
6343;BME280;3204;42.698;23.298;2023-04-26T07:28:07;94015.31;;;15.58;65.41
6343;BME280;3204;42.698;23.298;2023-04-26T07:30:33;94009.69;;;15.93;65.40
6343;BME280;3204;42.698;23.298;2023-04-26T07:32:58;94016.56;;;16.06;63.98
6343;BME280;3204;42.698;23.298;2023-04-26T07:35:24;94016.19;;;16.07;62.90
6343;BME280;3204;42.698;23.298;2023-04-26T07:37:50;94022.63;;;16.18;62.86
6343;BME280;3204;42.698;23.298;2023-04-26T07:40:16;94013.00;;;16.28;62.53
6343;BME280;3204;42.698;23.298;2023-04-26T07:42:42;94026.28;;;16.26;62.65
6343;BME280;3204;42.698;23.298;2023-04-26T07:45:08;94040.88;;;16.11;60.64
6343;BME280;3204;42.698;23.298;2023-04-26T07:47:34;94034.06;;;15.79;60.35
6343;BME280;3204;42.698;23.298;2023-04-26T07:49:59;94032.81;;;15.54;60.33
6343;BME280;3204;42.698;23.298;2023-04-26T07:52:25;94034.78;;;15.00;61.00
6343;BME280;3204;42.698;23.298;2023-04-26T07:54:50;94027.25;;;14.93;62.26
6343;BME280;3204;42.698;23.298;2023-04-26T07:57:16;94034.50;;;15.05;63.06
6343;BME280;3204;42.698;23.298;2023-04-26T07:59:41;94038.34;;;15.19;62.25
6343;BME280;3204;42.698;23.298;2023-04-26T08:02:07;94033.69;;;15.39;61.97
6343;BME280;3204;42.698;23.298;2023-04-26T08:04:32;94037.13;;;15.36;61.40
6343;BME280;3204;42.698;23.298;2023-04-26T08:06:59;94036.34;;;15.35;61.37
6343;BME280;3204;42.698;23.298;2023-04-26T08:09:26;94038.97;;;15.32;60.98
6343;BME280;3204;42.698;23.298;2023-04-26T08:11:52;94037.06;;;15.32;61.67
6343;BME280;3204;42.698;23.298;2023-04-26T08:14:17;94038.72;;;15.37;62.18
6343;BME280;3204;42.698;23.298;2023-04-26T08:16:43;94038.75;;;15.59;61.13
6343;BME280;3204;42.698;23.298;2023-04-26T08:19:08;94037.09;;;15.74;60.84
6343;BME280;3204;42.698;23.298;2023-04-26T08:21:34;94036.53;;;15.87;61.15
6343;BME280;3204;42.698;23.298;2023-04-26T08:23:59;94029.03;;;15.62;61.07
6343;BME280;3204;42.698;23.298;2023-04-26T08:26:25;94033.19;;;15.75;61.15
6343;BME280;3204;42.698;23.298;2023-04-26T08:28:50;94023.84;;;15.76;61.08
6343;BME280;3204;42.698;23.298;2023-04-26T08:31:16;94037.16;;;16.00;60.92
6343;BME280;3204;42.698;23.298;2023-04-26T08:33:41;94032.78;;;16.18;59.55
6343;BME280;3204;42.698;23.298;2023-04-26T08:36:07;94037.75;;;16.35;59.82
6343;BME280;3204;42.698;23.298;2023-04-26T08:38:33;94029.50;;;16.54;58.26
6343;BME280;3204;42.698;23.298;2023-04-26T08:40:58;94021.44;;;16.65;58.05
6343;BME280;3204;42.698;23.298;2023-04-26T08:43:32;94025.16;;;16.79;58.36
6343;BME280;3204;42.698;23.298;2023-04-26T08:46:00;94028.13;;;16.97;57.12
6343;BME280;3204;42.698;23.298;2023-04-26T08:48:27;94049.69;;;16.98;56.38
6343;BME280;3204;42.698;23.298;2023-04-26T08:50:57;94048.31;;;16.85;56.06
6343;BME280;3204;42.698;23.298;2023-04-26T08:53:23;94028.31;;;16.81;56.96
6343;BME280;3204;42.698;23.298;2023-04-26T08:55:49;94025.72;;;16.92;56.72
6343;BME280;3204;42.698;23.298;2023-04-26T08:58:18;94028.63;;;17.02;55.89
6343;BME280;3204;42.698;23.298;2023-04-26T09:00:45;94028.94;;;16.97;55.89
6343;BME280;3204;42.698;23.298;2023-04-26T09:03:11;94022.63;;;16.93;56.07
6343;BME280;3204;42.698;23.298;2023-04-26T09:05:39;94033.66;;;17.00;56.11
6343;BME280;3204;42.698;23.298;2023-04-26T09:08:08;94031.53;;;16.87;55.85
6343;BME280;3204;42.698;23.298;2023-04-26T09:10:37;94036.44;;;16.74;56.39
6343;BME280;3204;42.698;23.298;2023-04-26T09:13:03;94028.22;;;16.74;56.92
6343;BME280;3204;42.698;23.298;2023-04-26T09:15:28;94031.47;;;16.83;56.80
6343;BME280;3204;42.698;23.298;2023-04-26T09:17:54;94036.22;;;16.86;56.19
6343;BME280;3204;42.698;23.298;2023-04-26T09:20:29;94027.44;;;17.03;56.27
6343;BME280;3204;42.698;23.298;2023-04-26T09:23:06;94032.00;;;16.92;55.47
6343;BME280;3204;42.698;23.298;2023-04-26T09:25:32;94033.97;;;16.66;56.75
6343;BME280;3204;42.698;23.298;2023-04-26T09:27:58;94039.59;;;16.76;56.43
6343;BME280;3204;42.698;23.298;2023-04-26T09:30:25;94038.38;;;17.00;55.57
6343;BME280;3204;42.698;23.298;2023-04-26T09:33:01;94041.75;;;17.19;54.24
6343;BME280;3204;42.698;23.298;2023-04-26T09:35:41;94039.84;;;17.23;54.14
6343;BME280;3204;42.698;23.298;2023-04-26T09:38:13;94041.91;;;17.33;54.22
6343;BME280;3204;42.698;23.298;2023-04-26T09:40:45;94026.81;;;17.43;54.56
6343;BME280;3204;42.698;23.298;2023-04-26T09:43:18;94028.09;;;16.93;53.76
6343;BME280;3204;42.698;23.298;2023-04-26T09:45:46;94026.59;;;16.99;54.93
6343;BME280;3204;42.698;23.298;2023-04-26T09:48:14;94026.28;;;17.04;55.19
6343;BME280;3204;42.698;23.298;2023-04-26T09:50:41;94026.97;;;17.27;53.61
6343;BME280;3204;42.698;23.298;2023-04-26T09:53:08;94020.94;;;17.15;53.29
6343;BME280;3204;42.698;23.298;2023-04-26T09:55:34;94018.63;;;17.46;53.23
6343;BME280;3204;42.698;23.298;2023-04-26T09:58:07;94033.81;;;17.73;51.95
6343;BME280;3204;42.698;23.298;2023-04-26T10:00:33;94026.34;;;17.70;51.86
6343;BME280;3204;42.698;23.298;2023-04-26T10:02:59;94017.66;;;18.01;51.11
6343;BME280;3204;42.698;23.298;2023-04-26T10:05:24;94006.09;;;18.25;50.75
6343;BME280;3204;42.698;23.298;2023-04-26T10:07:50;94021.31;;;18.63;50.82
6343;BME280;3204;42.698;23.298;2023-04-26T10:10:17;94021.03;;;18.75;49.01
6343;BME280;3204;42.698;23.298;2023-04-26T10:12:43;94005.34;;;18.79;48.87
6343;BME280;3204;42.698;23.298;2023-04-26T10:15:10;94016.25;;;18.21;48.45
6343;BME280;3204;42.698;23.298;2023-04-26T10:17:38;94019.91;;;17.92;48.59
6343;BME280;3204;42.698;23.298;2023-04-26T10:20:08;94009.16;;;17.77;50.28
6343;BME280;3204;42.698;23.298;2023-04-26T10:22:45;94019.41;;;17.80;48.84
6343;BME280;3204;42.698;23.298;2023-04-26T10:25:14;94024.88;;;17.43;49.44
6343;BME280;3204;42.698;23.298;2023-04-26T10:30:21;94007.22;;;17.41;50.43
6343;BME280;3204;42.698;23.298;2023-04-26T10:35:26;94005.34;;;17.48;50.35
6343;BME280;3204;42.698;23.298;2023-04-26T10:40:36;94010.19;;;17.62;49.30
6343;BME280;3204;42.698;23.298;2023-04-26T10:45:38;94009.34;;;17.94;48.58
6343;BME280;3204;42.698;23.298;2023-04-26T10:59:07;93999.59;;;18.44;47.65
6343;BME280;3204;42.698;23.298;2023-04-26T11:01:33;93992.19;;;18.48;47.54
6343;BME280;3204;42.698;23.298;2023-04-26T11:06:26;93998.94;;;18.14;46.77
6343;BME280;3204;42.698;23.298;2023-04-26T11:08:54;93995.50;;;18.24;46.01
6343;BME280;3204;42.698;23.298;2023-04-26T11:11:24;93994.25;;;18.14;45.31
6343;BME280;3204;42.698;23.298;2023-04-26T11:13:50;93991.03;;;18.05;46.67
6343;BME280;3204;42.698;23.298;2023-04-26T11:16:16;93995.56;;;18.31;46.41
6343;BME280;3204;42.698;23.298;2023-04-26T11:18:46;93991.31;;;18.33;45.97
6343;BME280;3204;42.698;23.298;2023-04-26T11:21:12;93997.09;;;18.28;47.10
6343;BME280;3204;42.698;23.298;2023-04-26T11:23:41;93995.34;;;18.50;46.71
6343;BME280;3204;42.698;23.298;2023-04-26T11:26:08;93994.47;;;18.42;45.93
6343;BME280;3204;42.698;23.298;2023-04-26T11:28:35;94002.06;;;18.12;46.34
6343;BME280;3204;42.698;23.298;2023-04-26T11:31:02;93991.31;;;17.97;46.25
6343;BME280;3204;42.698;23.298;2023-04-26T11:33:28;93991.91;;;18.16;46.10
6343;BME280;3204;42.698;23.298;2023-04-26T11:35:56;93996.56;;;18.12;46.01
6343;BME280;3204;42.698;23.298;2023-04-26T11:38:23;94003.56;;;18.03;46.05
6343;BME280;3204;42.698;23.298;2023-04-26T11:41:00;93998.34;;;17.91;45.62
6343;BME280;3204;42.698;23.298;2023-04-26T11:43:36;93990.09;;;17.91;46.63
6343;BME280;3204;42.698;23.298;2023-04-26T11:46:03;94008.63;;;18.41;46.13
6343;BME280;3204;42.698;23.298;2023-04-26T11:48:29;94001.09;;;18.92;45.04
6343;BME280;3204;42.698;23.298;2023-04-26T11:50:56;94002.06;;;19.20;44.22
6343;BME280;3204;42.698;23.298;2023-04-26T11:53:39;93990.94;;;18.99;43.98
6343;BME280;3204;42.698;23.298;2023-04-26T11:56:16;93996.38;;;18.89;44.90
6343;BME280;3204;42.698;23.298;2023-04-26T11:58:49;93999.13;;;18.85;44.52
6343;BME280;3204;42.698;23.298;2023-04-26T12:01:25;93993.25;;;18.90;44.67
6343;BME280;3204;42.698;23.298;2023-04-26T12:03:55;93990.16;;;19.02;44.44
6343;BME280;3204;42.698;23.298;2023-04-26T12:06:28;93982.69;;;18.99;44.25
6343;BME280;3204;42.698;23.298;2023-04-26T12:08:55;93994.66;;;18.20;45.63
6343;BME280;3204;42.698;23.298;2023-04-26T12:11:21;93994.31;;;18.25;46.17
6343;BME280;3204;42.698;23.298;2023-04-26T12:13:46;93982.00;;;18.48;45.97
6343;BME280;3204;42.698;23.298;2023-04-26T12:16:12;93990.69;;;18.57;45.05
6343;BME280;3204;42.698;23.298;2023-04-26T12:18:40;93985.84;;;17.97;45.11
6343;BME280;3204;42.698;23.298;2023-04-26T12:21:06;93975.88;;;18.22;45.71
6343;BME280;3204;42.698;23.298;2023-04-26T12:23:38;93986.16;;;18.32;45.30
6343;BME280;3204;42.698;23.298;2023-04-26T12:26:05;93981.19;;;18.44;44.97
6343;BME280;3204;42.698;23.298;2023-04-26T12:28:30;93986.16;;;18.32;44.79
6343;BME280;3204;42.698;23.298;2023-04-26T12:30:56;93979.88;;;18.31;45.29
6343;BME280;3204;42.698;23.298;2023-04-26T12:33:21;93995.72;;;18.05;45.07
6343;BME280;3204;42.698;23.298;2023-04-26T12:35:49;93984.97;;;17.86;46.29
6343;BME280;3204;42.698;23.298;2023-04-26T12:38:15;93993.72;;;17.62;45.89
6343;BME280;3204;42.698;23.298;2023-04-26T12:40:41;93992.91;;;17.58;46.06
6343;BME280;3204;42.698;23.298;2023-04-26T12:43:07;93980.88;;;17.69;46.99
6343;BME280;3204;42.698;23.298;2023-04-26T12:45:33;93988.53;;;17.90;46.71
6343;BME280;3204;42.698;23.298;2023-04-26T12:47:59;93986.09;;;17.81;46.98
6343;BME280;3204;42.698;23.298;2023-04-26T12:50:25;93990.13;;;17.94;46.08
6343;BME280;3204;42.698;23.298;2023-04-26T12:52:50;94004.81;;;17.72;45.89
6343;BME280;3204;42.698;23.298;2023-04-26T12:55:16;93987.78;;;17.56;45.43
6343;BME280;3204;42.698;23.298;2023-04-26T12:57:43;93987.09;;;17.66;45.54
6343;BME280;3204;42.698;23.298;2023-04-26T13:00:13;93997.50;;;17.47;45.81
6343;BME280;3204;42.698;23.298;2023-04-26T13:02:39;93985.72;;;17.46;47.36
6343;BME280;3204;42.698;23.298;2023-04-26T13:05:06;93988.22;;;17.58;48.27
6343;BME280;3204;42.698;23.298;2023-04-26T13:07:32;93988.59;;;17.57;48.59
6343;BME280;3204;42.698;23.298;2023-04-26T13:10:02;93998.88;;;17.67;47.46
6343;BME280;3204;42.698;23.298;2023-04-26T13:12:28;93993.50;;;17.41;48.12
6343;BME280;3204;42.698;23.298;2023-04-26T13:14:54;94002.78;;;17.33;48.50
6343;BME280;3204;42.698;23.298;2023-04-26T13:17:20;94000.69;;;17.23;48.69
6343;BME280;3204;42.698;23.298;2023-04-26T13:19:46;94003.91;;;16.99;48.98
6343;BME280;3204;42.698;23.298;2023-04-26T13:22:12;94010.63;;;17.05;48.79
6343;BME280;3204;42.698;23.298;2023-04-26T13:24:37;94011.06;;;16.51;45.88
6343;BME280;3204;42.698;23.298;2023-04-26T13:27:03;94008.66;;;16.01;47.51
6343;BME280;3204;42.698;23.298;2023-04-26T13:29:29;94016.66;;;16.13;48.06
6343;BME280;3204;42.698;23.298;2023-04-26T13:31:56;94017.47;;;16.13;49.05